Newton-le-Willows, United Kingdom
Current Conditions -  °F | °C
As of 2:20 PM on Saturday 20 Dec 2014 (Local Time) from EGGP Reporting Station
Scattered Clouds Scattered Clouds  
Wind Chill: 41°   Ceiling: Unl
Heat Index: 48°   Visibility: 6mi
Dew Point: 41°   Wind: 21mph
Humidity: 76%   Direction: 280°W
Pressure: 30.27"   Gusts: NA
Location:  53.45°N, 2.6°W
Report Text: EGGP 201420Z 28018KT 9999 SCT031 09/05 Q1025
Loading
Personal Weather Stations






























Interactive Weather Map New forecast layout! Learn more

10-Day Weather Forecast

Advertisements
Track Severe Weather on mobile